sensor_id;sensor_type;location;lat;lon;timestamp;P1;durP1;ratioP1;P2;durP2;ratioP2
47958;SDS011;33718;50.910;-1.514;2022-08-06T00:01:01;1.00;;;0.30;;
47958;SDS011;33718;50.910;-1.514;2022-08-06T00:03:05;3.67;;;0.50;;
47958;SDS011;33718;50.910;-1.514;2022-08-06T00:05:06;5.45;;;0.70;;
47958;SDS011;33718;50.910;-1.514;2022-08-06T00:07:08;5.85;;;0.98;;
47958;SDS011;33718;50.910;-1.514;2022-08-06T00:09:18;3.30;;;1.10;;
47958;SDS011;33718;50.910;-1.514;2022-08-06T00:11:22;1.40;;;0.70;;
47958;SDS011;33718;50.910;-1.514;2022-08-06T00:13:27;5.85;;;0.77;;
47958;SDS011;33718;50.910;-1.514;2022-08-06T00:15:31;2.30;;;0.50;;
47958;SDS011;33718;50.910;-1.514;2022-08-06T00:17:52;4.63;;;0.55;;
47958;SDS011;33718;50.910;-1.514;2022-08-06T00:19:55;5.82;;;0.60;;
47958;SDS011;33718;50.910;-1.514;2022-08-06T00:22:01;1.77;;;0.65;;
47958;SDS011;33718;50.910;-1.514;2022-08-06T00:24:03;2.22;;;0.57;;
47958;SDS011;33718;50.910;-1.514;2022-08-06T00:26:12;2.42;;;0.60;;
47958;SDS011;33718;50.910;-1.514;2022-08-06T00:28:17;1.02;;;0.30;;
47958;SDS011;33718;50.910;-1.514;2022-08-06T00:30:20;0.98;;;0.52;;
47958;SDS011;33718;50.910;-1.514;2022-08-06T00:32:24;1.25;;;0.50;;
47958;SDS011;33718;50.910;-1.514;2022-08-06T00:34:29;0.95;;;0.40;;
47958;SDS011;33718;50.910;-1.514;2022-08-06T00:36:31;0.75;;;0.30;;
47958;SDS011;33718;50.910;-1.514;2022-08-06T00:38:34;0.90;;;0.52;;
47958;SDS011;33718;50.910;-1.514;2022-08-06T00:40:35;6.00;;;0.60;;
47958;SDS011;33718;50.910;-1.514;2022-08-06T00:42:51;0.75;;;0.40;;
47958;SDS011;33718;50.910;-1.514;2022-08-06T00:44:54;1.13;;;0.60;;
47958;SDS011;33718;50.910;-1.514;2022-08-06T00:46:58;4.88;;;0.55;;
47958;SDS011;33718;50.910;-1.514;2022-08-06T00:49:00;1.65;;;0.40;;
47958;SDS011;33718;50.910;-1.514;2022-08-06T00:51:12;0.90;;;0.60;;
47958;SDS011;33718;50.910;-1.514;2022-08-06T00:53:21;2.58;;;0.85;;
47958;SDS011;33718;50.910;-1.514;2022-08-06T00:55:22;2.15;;;0.63;;
47958;SDS011;33718;50.910;-1.514;2022-08-06T00:57:36;1.60;;;0.40;;
47958;SDS011;33718;50.910;-1.514;2022-08-06T00:59:38;9.77;;;1.48;;
47958;SDS011;33718;50.910;-1.514;2022-08-06T01:01:40;1.10;;;0.50;;
47958;SDS011;33718;50.910;-1.514;2022-08-06T01:03:51;2.97;;;0.57;;
47958;SDS011;33718;50.910;-1.514;2022-08-06T01:05:53;2.28;;;0.73;;
47958;SDS011;33718;50.910;-1.514;2022-08-06T01:08:15;1.60;;;0.45;;
47958;SDS011;33718;50.910;-1.514;2022-08-06T01:10:17;1.77;;;1.10;;
47958;SDS011;33718;50.910;-1.514;2022-08-06T01:12:18;0.57;;;0.45;;
47958;SDS011;33718;50.910;-1.514;2022-08-06T01:14:32;1.67;;;0.55;;
47958;SDS011;33718;50.910;-1.514;2022-08-06T01:16:43;1.73;;;0.63;;
47958;SDS011;33718;50.910;-1.514;2022-08-06T01:28:38;5.22;;;0.60;;
47958;SDS011;33718;50.910;-1.514;2022-08-06T01:30:46;1.45;;;0.52;;
47958;SDS011;33718;50.910;-1.514;2022-08-06T01:35:12;0.98;;;0.60;;
47958;SDS011;33718;50.910;-1.514;2022-08-06T01:37:39;5.68;;;0.73;;
47958;SDS011;33718;50.910;-1.514;2022-08-06T01:39:42;1.90;;;1.00;;
47958;SDS011;33718;50.910;-1.514;2022-08-06T01:42:03;2.63;;;0.60;;
47958;SDS011;33718;50.910;-1.514;2022-08-06T01:44:07;4.55;;;0.90;;
47958;SDS011;33718;50.910;-1.514;2022-08-06T01:46:16;2.45;;;0.98;;
47958;SDS011;33718;50.910;-1.514;2022-08-06T01:48:19;4.32;;;0.85;;
47958;SDS011;33718;50.910;-1.514;2022-08-06T01:50:33;2.08;;;0.95;;
47958;SDS011;33718;50.910;-1.514;2022-08-06T01:52:38;3.88;;;1.95;;
47958;SDS011;33718;50.910;-1.514;2022-08-06T01:54:41;3.25;;;1.02;;
47958;SDS011;33718;50.910;-1.514;2022-08-06T01:56:53;2.67;;;1.17;;
47958;SDS011;33718;50.910;-1.514;2022-08-06T01:58:58;3.75;;;1.48;;
47958;SDS011;33718;50.910;-1.514;2022-08-06T02:01:06;4.65;;;1.50;;
47958;SDS011;33718;50.910;-1.514;2022-08-06T02:03:14;3.38;;;1.13;;
47958;SDS011;33718;50.910;-1.514;2022-08-06T02:05:19;4.10;;;1.13;;
47958;SDS011;33718;50.910;-1.514;2022-08-06T02:07:22;3.40;;;1.35;;
47958;SDS011;33718;50.910;-1.514;2022-08-06T02:09:44;6.68;;;1.58;;
47958;SDS011;33718;50.910;-1.514;2022-08-06T02:12:00;1.42;;;1.15;;
47958;SDS011;33718;50.910;-1.514;2022-08-06T02:14:07;2.42;;;1.70;;
47958;SDS011;33718;50.910;-1.514;2022-08-06T02:16:10;1.83;;;1.40;;
47958;SDS011;33718;50.910;-1.514;2022-08-06T02:18:12;1.80;;;1.45;;
47958;SDS011;33718;50.910;-1.514;2022-08-06T02:20:38;4.30;;;1.35;;
47958;SDS011;33718;50.910;-1.514;2022-08-06T02:22:48;2.97;;;1.70;;
47958;SDS011;33718;50.910;-1.514;2022-08-06T02:24:50;1.73;;;1.42;;
47958;SDS011;33718;50.910;-1.514;2022-08-06T02:26:53;2.30;;;1.35;;
47958;SDS011;33718;50.910;-1.514;2022-08-06T02:28:55;5.80;;;1.25;;
47958;SDS011;33718;50.910;-1.514;2022-08-06T02:30:58;4.72;;;1.75;;
47958;SDS011;33718;50.910;-1.514;2022-08-06T02:33:01;5.35;;;1.70;;
47958;SDS011;33718;50.910;-1.514;2022-08-06T02:35:03;2.03;;;1.70;;
47958;SDS011;33718;50.910;-1.514;2022-08-06T02:37:13;2.75;;;1.90;;
47958;SDS011;33718;50.910;-1.514;2022-08-06T02:39:40;2.08;;;1.75;;
47958;SDS011;33718;50.910;-1.514;2022-08-06T02:44:13;2.22;;;1.85;;
47958;SDS011;33718;50.910;-1.514;2022-08-06T02:46:33;4.00;;;1.42;;
47958;SDS011;33718;50.910;-1.514;2022-08-06T02:48:48;2.10;;;1.33;;
47958;SDS011;33718;50.910;-1.514;2022-08-06T02:50:51;5.10;;;2.47;;
47958;SDS011;33718;50.910;-1.514;2022-08-06T02:53:04;2.47;;;2.17;;
47958;SDS011;33718;50.910;-1.514;2022-08-06T02:55:32;3.65;;;2.05;;
47958;SDS011;33718;50.910;-1.514;2022-08-06T02:57:59;5.68;;;2.30;;
47958;SDS011;33718;50.910;-1.514;2022-08-06T03:00:02;5.68;;;2.30;;
47958;SDS011;33718;50.910;-1.514;2022-08-06T03:02:06;3.05;;;2.35;;
47958;SDS011;33718;50.910;-1.514;2022-08-06T03:04:12;2.75;;;1.67;;
47958;SDS011;33718;50.910;-1.514;2022-08-06T03:06:16;2.42;;;2.05;;
47958;SDS011;33718;50.910;-1.514;2022-08-06T03:08:20;6.70;;;2.53;;
47958;SDS011;33718;50.910;-1.514;2022-08-06T03:10:26;3.70;;;2.42;;
47958;SDS011;33718;50.910;-1.514;2022-08-06T03:14:32;4.68;;;2.38;;
47958;SDS011;33718;50.910;-1.514;2022-08-06T03:16:55;3.80;;;1.90;;
47958;SDS011;33718;50.910;-1.514;2022-08-06T03:18:59;2.42;;;2.10;;
47958;SDS011;33718;50.910;-1.514;2022-08-06T03:21:21;4.20;;;2.45;;
47958;SDS011;33718;50.910;-1.514;2022-08-06T03:23:24;3.08;;;2.28;;
47958;SDS011;33718;50.910;-1.514;2022-08-06T03:25:28;3.60;;;2.33;;
47958;SDS011;33718;50.910;-1.514;2022-08-06T03:27:31;6.28;;;3.63;;
47958;SDS011;33718;50.910;-1.514;2022-08-06T03:29:45;3.83;;;1.92;;
47958;SDS011;33718;50.910;-1.514;2022-08-06T03:31:46;3.95;;;1.95;;
47958;SDS011;33718;50.910;-1.514;2022-08-06T03:33:59;3.03;;;2.72;;
47958;SDS011;33718;50.910;-1.514;2022-08-06T03:36:04;2.47;;;2.00;;
47958;SDS011;33718;50.910;-1.514;2022-08-06T03:38:09;6.72;;;2.88;;
47958;SDS011;33718;50.910;-1.514;2022-08-06T03:40:11;3.80;;;2.50;;
47958;SDS011;33718;50.910;-1.514;2022-08-06T03:42:13;5.75;;;2.15;;
47958;SDS011;33718;50.910;-1.514;2022-08-06T03:48:41;3.00;;;2.70;;
47958;SDS011;33718;50.910;-1.514;2022-08-06T03:50:44;6.13;;;2.75;;
47958;SDS011;33718;50.910;-1.514;2022-08-06T03:52:55;3.88;;;2.22;;
47958;SDS011;33718;50.910;-1.514;2022-08-06T03:55:04;3.47;;;2.53;;
47958;SDS011;33718;50.910;-1.514;2022-08-06T03:57:19;4.38;;;3.03;;
47958;SDS011;33718;50.910;-1.514;2022-08-06T03:59:29;3.75;;;2.17;;
47958;SDS011;33718;50.910;-1.514;2022-08-06T04:01:51;3.97;;;2.63;;
47958;SDS011;33718;50.910;-1.514;2022-08-06T04:05:57;7.57;;;2.80;;
47958;SDS011;33718;50.910;-1.514;2022-08-06T04:08:04;5.43;;;2.60;;
47958;SDS011;33718;50.910;-1.514;2022-08-06T04:10:06;3.63;;;2.75;;
47958;SDS011;33718;50.910;-1.514;2022-08-06T04:12:11;5.05;;;2.92;;
47958;SDS011;33718;50.910;-1.514;2022-08-06T04:14:33;4.07;;;3.10;;
47958;SDS011;33718;50.910;-1.514;2022-08-06T04:16:38;3.40;;;3.05;;
47958;SDS011;33718;50.910;-1.514;2022-08-06T04:18:40;14.15;;;2.83;;
47958;SDS011;33718;50.910;-1.514;2022-08-06T04:20:44;3.50;;;3.15;;
47958;SDS011;33718;50.910;-1.514;2022-08-06T04:22:53;4.88;;;3.30;;
47958;SDS011;33718;50.910;-1.514;2022-08-06T04:25:10;3.55;;;2.85;;
47958;SDS011;33718;50.910;-1.514;2022-08-06T04:27:13;3.65;;;2.97;;
47958;SDS011;33718;50.910;-1.514;2022-08-06T04:29:20;2.72;;;2.35;;
47958;SDS011;33718;50.910;-1.514;2022-08-06T04:31:24;3.67;;;3.28;;
47958;SDS011;33718;50.910;-1.514;2022-08-06T04:33:46;3.40;;;3.10;;
47958;SDS011;33718;50.910;-1.514;2022-08-06T04:35:52;5.10;;;3.03;;
47958;SDS011;33718;50.910;-1.514;2022-08-06T04:38:12;3.72;;;3.30;;
47958;SDS011;33718;50.910;-1.514;2022-08-06T04:40:16;4.95;;;3.47;;
47958;SDS011;33718;50.910;-1.514;2022-08-06T04:42:34;6.20;;;3.05;;
47958;SDS011;33718;50.910;-1.514;2022-08-06T04:44:36;5.70;;;2.97;;
47958;SDS011;33718;50.910;-1.514;2022-08-06T04:46:45;3.20;;;2.88;;
47958;SDS011;33718;50.910;-1.514;2022-08-06T04:48:50;3.83;;;3.17;;
47958;SDS011;33718;50.910;-1.514;2022-08-06T04:50:58;5.35;;;3.80;;
47958;SDS011;33718;50.910;-1.514;2022-08-06T04:53:18;4.85;;;3.55;;
47958;SDS011;33718;50.910;-1.514;2022-08-06T04:55:41;3.42;;;2.85;;
47958;SDS011;33718;50.910;-1.514;2022-08-06T04:58:04;3.90;;;3.50;;
47958;SDS011;33718;50.910;-1.514;2022-08-06T05:00:12;7.57;;;3.60;;
47958;SDS011;33718;50.910;-1.514;2022-08-06T05:02:15;7.00;;;3.95;;
47958;SDS011;33718;50.910;-1.514;2022-08-06T05:04:18;6.82;;;4.28;;
47958;SDS011;33718;50.910;-1.514;2022-08-06T05:08:31;6.82;;;3.85;;
47958;SDS011;33718;50.910;-1.514;2022-08-06T05:10:35;4.43;;;3.85;;
47958;SDS011;33718;50.910;-1.514;2022-08-06T05:12:42;6.18;;;4.57;;
47958;SDS011;33718;50.910;-1.514;2022-08-06T05:14:46;5.30;;;4.28;;
47958;SDS011;33718;50.910;-1.514;2022-08-06T05:16:50;8.25;;;3.97;;
47958;SDS011;33718;50.910;-1.514;2022-08-06T05:18:58;7.75;;;4.32;;
47958;SDS011;33718;50.910;-1.514;2022-08-06T05:21:21;7.35;;;3.70;;
47958;SDS011;33718;50.910;-1.514;2022-08-06T05:23:46;5.75;;;4.18;;
47958;SDS011;33718;50.910;-1.514;2022-08-06T05:25:48;7.55;;;4.68;;
47958;SDS011;33718;50.910;-1.514;2022-08-06T05:27:57;6.28;;;4.63;;
47958;SDS011;33718;50.910;-1.514;2022-08-06T05:30:12;6.18;;;3.40;;
47958;SDS011;33718;50.910;-1.514;2022-08-06T05:32:13;7.63;;;4.82;;
47958;SDS011;33718;50.910;-1.514;2022-08-06T05:34:19;6.28;;;4.45;;
47958;SDS011;33718;50.910;-1.514;2022-08-06T05:36:20;9.07;;;4.03;;
47958;SDS011;33718;50.910;-1.514;2022-08-06T05:38:32;6.47;;;4.25;;
47958;SDS011;33718;50.910;-1.514;2022-08-06T05:40:38;10.05;;;6.03;;
47958;SDS011;33718;50.910;-1.514;2022-08-06T05:42:57;7.95;;;4.90;;
47958;SDS011;33718;50.910;-1.514;2022-08-06T05:45:00;7.82;;;4.60;;
47958;SDS011;33718;50.910;-1.514;2022-08-06T05:47:03;11.68;;;5.03;;
47958;SDS011;33718;50.910;-1.514;2022-08-06T05:49:20;7.65;;;4.72;;
47958;SDS011;33718;50.910;-1.514;2022-08-06T05:53:53;7.65;;;3.97;;
47958;SDS011;33718;50.910;-1.514;2022-08-06T05:58:10;6.43;;;4.53;;
47958;SDS011;33718;50.910;-1.514;2022-08-06T06:00:14;6.22;;;4.50;;
47958;SDS011;33718;50.910;-1.514;2022-08-06T06:02:39;7.05;;;5.97;;
47958;SDS011;33718;50.910;-1.514;2022-08-06T06:04:41;7.20;;;5.65;;
47958;SDS011;33718;50.910;-1.514;2022-08-06T06:07:03;8.40;;;5.90;;
47958;SDS011;33718;50.910;-1.514;2022-08-06T06:09:10;12.43;;;6.55;;
47958;SDS011;33718;50.910;-1.514;2022-08-06T06:11:14;8.70;;;6.10;;
47958;SDS011;33718;50.910;-1.514;2022-08-06T06:13:22;7.50;;;6.13;;
47958;SDS011;33718;50.910;-1.514;2022-08-06T06:15:34;9.60;;;6.25;;
47958;SDS011;33718;50.910;-1.514;2022-08-06T06:18:18;12.32;;;7.18;;
47958;SDS011;33718;50.910;-1.514;2022-08-06T06:23:08;10.55;;;8.23;;
47958;SDS011;33718;50.910;-1.514;2022-08-06T06:25:15;14.57;;;8.27;;
47958;SDS011;33718;50.910;-1.514;2022-08-06T06:27:22;9.23;;;8.10;;
47958;SDS011;33718;50.910;-1.514;2022-08-06T06:30:05;16.73;;;8.13;;
47958;SDS011;33718;50.910;-1.514;2022-08-06T06:39:08;13.48;;;6.57;;
47958;SDS011;33718;50.910;-1.514;2022-08-06T06:43:35;6.22;;;5.63;;
47958;SDS011;33718;50.910;-1.514;2022-08-06T06:45:51;7.85;;;5.05;;
47958;SDS011;33718;50.910;-1.514;2022-08-06T06:54:35;7.75;;;4.65;;
47958;SDS011;33718;50.910;-1.514;2022-08-06T06:56:39;6.57;;;4.25;;
47958;SDS011;33718;50.910;-1.514;2022-08-06T06:58:50;6.57;;;4.05;;
47958;SDS011;33718;50.910;-1.514;2022-08-06T07:00:55;11.18;;;4.93;;
47958;SDS011;33718;50.910;-1.514;2022-08-06T07:03:16;5.15;;;3.58;;
47958;SDS011;33718;50.910;-1.514;2022-08-06T07:05:20;6.93;;;3.63;;
47958;SDS011;33718;50.910;-1.514;2022-08-06T07:07:42;8.05;;;3.92;;
47958;SDS011;33718;50.910;-1.514;2022-08-06T07:09:50;5.32;;;3.85;;
47958;SDS011;33718;50.910;-1.514;2022-08-06T07:12:00;5.47;;;3.92;;
47958;SDS011;33718;50.910;-1.514;2022-08-06T07:14:04;7.00;;;3.85;;
47958;SDS011;33718;50.910;-1.514;2022-08-06T07:16:08;4.43;;;3.63;;
47958;SDS011;33718;50.910;-1.514;2022-08-06T07:20:34;6.35;;;3.63;;
47958;SDS011;33718;50.910;-1.514;2022-08-06T07:22:41;5.53;;;3.42;;
47958;SDS011;33718;50.910;-1.514;2022-08-06T07:25:05;5.83;;;3.87;;
47958;SDS011;33718;50.910;-1.514;2022-08-06T07:27:20;5.68;;;3.33;;
47958;SDS011;33718;50.910;-1.514;2022-08-06T07:29:38;7.00;;;3.10;;
47958;SDS011;33718;50.910;-1.514;2022-08-06T07:32:00;5.78;;;3.35;;
47958;SDS011;33718;50.910;-1.514;2022-08-06T07:34:02;5.38;;;2.55;;
47958;SDS011;33718;50.910;-1.514;2022-08-06T07:36:09;9.32;;;3.15;;
47958;SDS011;33718;50.910;-1.514;2022-08-06T07:38:17;3.30;;;2.42;;
47958;SDS011;33718;50.910;-1.514;2022-08-06T07:40:27;5.50;;;2.60;;
47958;SDS011;33718;50.910;-1.514;2022-08-06T07:42:30;3.65;;;2.75;;
47958;SDS011;33718;50.910;-1.514;2022-08-06T07:44:37;7.13;;;2.90;;
47958;SDS011;33718;50.910;-1.514;2022-08-06T07:46:58;8.60;;;2.67;;
47958;SDS011;33718;50.910;-1.514;2022-08-06T07:49:04;4.25;;;2.80;;
47958;SDS011;33718;50.910;-1.514;2022-08-06T07:51:08;4.03;;;2.35;;
47958;SDS011;33718;50.910;-1.514;2022-08-06T07:53:11;5.68;;;2.33;;
47958;SDS011;33718;50.910;-1.514;2022-08-06T07:55:13;2.92;;;2.00;;
47958;SDS011;33718;50.910;-1.514;2022-08-06T07:57:16;7.43;;;2.35;;
47958;SDS011;33718;50.910;-1.514;2022-08-06T07:59:25;2.75;;;2.50;;
47958;SDS011;33718;50.910;-1.514;2022-08-06T08:01:31;7.30;;;2.25;;
47958;SDS011;33718;50.910;-1.514;2022-08-06T08:03:37;7.07;;;3.30;;
47958;SDS011;33718;50.910;-1.514;2022-08-06T08:06:00;5.07;;;2.85;;
47958;SDS011;33718;50.910;-1.514;2022-08-06T08:08:23;4.10;;;2.58;;
47958;SDS011;33718;50.910;-1.514;2022-08-06T08:10:26;5.70;;;2.10;;
47958;SDS011;33718;50.910;-1.514;2022-08-06T08:12:30;8.45;;;3.60;;
47958;SDS011;33718;50.910;-1.514;2022-08-06T08:14:36;6.15;;;2.53;;
47958;SDS011;33718;50.910;-1.514;2022-08-06T08:16:48;3.97;;;2.55;;
47958;SDS011;33718;50.910;-1.514;2022-08-06T08:18:50;7.68;;;3.50;;
47958;SDS011;33718;50.910;-1.514;2022-08-06T08:22:54;3.33;;;2.25;;
47958;SDS011;33718;50.910;-1.514;2022-08-06T08:24:55;7.63;;;2.85;;
47958;SDS011;33718;50.910;-1.514;2022-08-06T08:26:57;5.82;;;3.20;;
47958;SDS011;33718;50.910;-1.514;2022-08-06T08:41:44;5.78;;;2.42;;
47958;SDS011;33718;50.910;-1.514;2022-08-06T08:52:08;6.78;;;2.45;;
47958;SDS011;33718;50.910;-1.514;2022-08-06T08:54:17;2.97;;;2.40;;
47958;SDS011;33718;50.910;-1.514;2022-08-06T08:56:20;3.20;;;2.33;;
47958;SDS011;33718;50.910;-1.514;2022-08-06T08:58:41;4.82;;;2.53;;
47958;SDS011;33718;50.910;-1.514;2022-08-06T09:01:06;4.55;;;2.17;;
47958;SDS011;33718;50.910;-1.514;2022-08-06T09:03:29;2.30;;;2.13;;
47958;SDS011;33718;50.910;-1.514;2022-08-06T09:05:33;5.30;;;2.45;;
47958;SDS011;33718;50.910;-1.514;2022-08-06T09:09:38;2.72;;;2.38;;
47958;SDS011;33718;50.910;-1.514;2022-08-06T09:11:47;4.35;;;2.50;;
47958;SDS011;33718;50.910;-1.514;2022-08-06T09:14:09;5.97;;;2.72;;
47958;SDS011;33718;50.910;-1.514;2022-08-06T09:16:15;3.90;;;2.28;;
47958;SDS011;33718;50.910;-1.514;2022-08-06T09:18:20;5.50;;;2.70;;
47958;SDS011;33718;50.910;-1.514;2022-08-06T09:20:27;8.00;;;2.95;;
47958;SDS011;33718;50.910;-1.514;2022-08-06T09:22:29;3.60;;;2.10;;
47958;SDS011;33718;50.910;-1.514;2022-08-06T09:24:31;3.03;;;2.17;;
47958;SDS011;33718;50.910;-1.514;2022-08-06T09:26:35;3.67;;;2.10;;
47958;SDS011;33718;50.910;-1.514;2022-08-06T09:28:55;5.90;;;2.35;;
47958;SDS011;33718;50.910;-1.514;2022-08-06T09:30:58;2.30;;;2.10;;
47958;SDS011;33718;50.910;-1.514;2022-08-06T09:33:01;4.45;;;2.60;;
47958;SDS011;33718;50.910;-1.514;2022-08-06T09:35:23;6.30;;;2.45;;
47958;SDS011;33718;50.910;-1.514;2022-08-06T09:37:45;6.28;;;2.20;;
47958;SDS011;33718;50.910;-1.514;2022-08-06T09:48:10;4.75;;;2.15;;
47958;SDS011;33718;50.910;-1.514;2022-08-06T09:54:26;2.85;;;2.30;;
47958;SDS011;33718;50.910;-1.514;2022-08-06T09:56:36;3.42;;;1.40;;
47958;SDS011;33718;50.910;-1.514;2022-08-06T09:58:45;5.70;;;2.17;;
47958;SDS011;33718;50.910;-1.514;2022-08-06T10:00:47;5.00;;;2.17;;
47958;SDS011;33718;50.910;-1.514;2022-08-06T10:02:54;3.28;;;1.95;;
47958;SDS011;33718;50.910;-1.514;2022-08-06T10:05:05;2.65;;;1.65;;
47958;SDS011;33718;50.910;-1.514;2022-08-06T10:07:07;1.60;;;1.50;;
47958;SDS011;33718;50.910;-1.514;2022-08-06T10:09:11;3.72;;;1.95;;
47958;SDS011;33718;50.910;-1.514;2022-08-06T10:11:34;2.92;;;1.85;;
47958;SDS011;33718;50.910;-1.514;2022-08-06T10:13:49;3.13;;;1.98;;
47958;SDS011;33718;50.910;-1.514;2022-08-06T10:15:56;3.67;;;2.10;;
47958;SDS011;33718;50.910;-1.514;2022-08-06T10:18:03;3.92;;;1.58;;
47958;SDS011;33718;50.910;-1.514;2022-08-06T10:20:16;2.67;;;1.58;;
47958;SDS011;33718;50.910;-1.514;2022-08-06T10:22:19;3.60;;;2.00;;
47958;SDS011;33718;50.910;-1.514;2022-08-06T10:24:22;4.35;;;1.55;;
47958;SDS011;33718;50.910;-1.514;2022-08-06T10:26:42;3.15;;;1.70;;
47958;SDS011;33718;50.910;-1.514;2022-08-06T10:28:46;2.75;;;1.90;;
47958;SDS011;33718;50.910;-1.514;2022-08-06T10:30:47;2.95;;;1.38;;
47958;SDS011;33718;50.910;-1.514;2022-08-06T10:32:53;1.63;;;1.40;;
47958;SDS011;33718;50.910;-1.514;2022-08-06T10:35:00;3.95;;;1.52;;
47958;SDS011;33718;50.910;-1.514;2022-08-06T10:37:11;3.40;;;1.30;;
47958;SDS011;33718;50.910;-1.514;2022-08-06T10:39:34;2.58;;;1.45;;
47958;SDS011;33718;50.910;-1.514;2022-08-06T10:41:57;10.23;;;1.95;;
47958;SDS011;33718;50.910;-1.514;2022-08-06T10:44:04;3.03;;;1.75;;
47958;SDS011;33718;50.910;-1.514;2022-08-06T10:46:08;1.98;;;1.60;;
47958;SDS011;33718;50.910;-1.514;2022-08-06T10:48:11;5.57;;;1.65;;
47958;SDS011;33718;50.910;-1.514;2022-08-06T10:50:33;5.18;;;1.98;;
47958;SDS011;33718;50.910;-1.514;2022-08-06T10:52:48;2.30;;;1.63;;
47958;SDS011;33718;50.910;-1.514;2022-08-06T10:54:51;3.63;;;1.60;;
47958;SDS011;33718;50.910;-1.514;2022-08-06T10:56:53;6.23;;;1.70;;
47958;SDS011;33718;50.910;-1.514;2022-08-06T10:58:55;4.97;;;1.83;;
47958;SDS011;33718;50.910;-1.514;2022-08-06T11:00:58;5.10;;;1.38;;
47958;SDS011;33718;50.910;-1.514;2022-08-06T11:05:07;3.33;;;1.10;;
47958;SDS011;33718;50.910;-1.514;2022-08-06T11:07:37;5.97;;;1.77;;
47958;SDS011;33718;50.910;-1.514;2022-08-06T11:14:33;4.45;;;1.55;;
47958;SDS011;33718;50.910;-1.514;2022-08-06T11:16:38;3.58;;;1.05;;
47958;SDS011;33718;50.910;-1.514;2022-08-06T11:18:56;2.42;;;1.33;;
47958;SDS011;33718;50.910;-1.514;2022-08-06T11:20:58;3.38;;;1.65;;
47958;SDS011;33718;50.910;-1.514;2022-08-06T11:23:05;4.35;;;1.40;;
47958;SDS011;33718;50.910;-1.514;2022-08-06T11:25:43;2.90;;;1.20;;
47958;SDS011;33718;50.910;-1.514;2022-08-06T11:32:42;1.80;;;0.73;;
47958;SDS011;33718;50.910;-1.514;2022-08-06T11:34:45;2.47;;;1.45;;
47958;SDS011;33718;50.910;-1.514;2022-08-06T11:36:54;3.80;;;0.82;;
47958;SDS011;33718;50.910;-1.514;2022-08-06T11:38:58;4.03;;;1.33;;
47958;SDS011;33718;50.910;-1.514;2022-08-06T11:41:16;2.40;;;1.10;;
47958;SDS011;33718;50.910;-1.514;2022-08-06T11:46:24;3.25;;;1.40;;
47958;SDS011;33718;50.910;-1.514;2022-08-06T11:49:03;5.07;;;1.73;;
47958;SDS011;33718;50.910;-1.514;2022-08-06T11:51:18;2.50;;;1.10;;
47958;SDS011;33718;50.910;-1.514;2022-08-06T11:55:23;1.92;;;1.10;;
47958;SDS011;33718;50.910;-1.514;2022-08-06T11:57:28;2.22;;;1.33;;
47958;SDS011;33718;50.910;-1.514;2022-08-06T12:01:56;2.95;;;1.50;;
47958;SDS011;33718;50.910;-1.514;2022-08-06T12:03:58;2.30;;;1.63;;
47958;SDS011;33718;50.910;-1.514;2022-08-06T12:06:00;3.00;;;1.17;;
47958;SDS011;33718;50.910;-1.514;2022-08-06T12:08:15;5.35;;;1.80;;
47958;SDS011;33718;50.910;-1.514;2022-08-06T12:10:39;1.77;;;1.10;;
47958;SDS011;33718;50.910;-1.514;2022-08-06T12:14:46;1.95;;;1.15;;
47958;SDS011;33718;50.910;-1.514;2022-08-06T12:16:51;2.42;;;1.10;;
47958;SDS011;33718;50.910;-1.514;2022-08-06T12:18:54;5.10;;;0.90;;
47958;SDS011;33718;50.910;-1.514;2022-08-06T12:20:56;3.42;;;0.60;;
47958;SDS011;33718;50.910;-1.514;2022-08-06T12:23:21;2.35;;;1.08;;
47958;SDS011;33718;50.910;-1.514;2022-08-06T12:25:28;3.58;;;0.80;;
47958;SDS011;33718;50.910;-1.514;2022-08-06T12:27:33;2.47;;;1.23;;
47958;SDS011;33718;50.910;-1.514;2022-08-06T12:29:35;3.88;;;0.90;;
47958;SDS011;33718;50.910;-1.514;2022-08-06T12:31:42;2.67;;;1.08;;
47958;SDS011;33718;50.910;-1.514;2022-08-06T12:33:50;2.65;;;1.00;;
47958;SDS011;33718;50.910;-1.514;2022-08-06T12:35:56;1.73;;;0.98;;
47958;SDS011;33718;50.910;-1.514;2022-08-06T12:38:02;3.28;;;1.10;;
47958;SDS011;33718;50.910;-1.514;2022-08-06T12:40:07;3.97;;;1.00;;
47958;SDS011;33718;50.910;-1.514;2022-08-06T12:42:25;3.15;;;1.02;;
47958;SDS011;33718;50.910;-1.514;2022-08-06T12:44:47;1.15;;;0.82;;
47958;SDS011;33718;50.910;-1.514;2022-08-06T12:47:09;4.35;;;0.75;;
47958;SDS011;33718;50.910;-1.514;2022-08-06T12:49:13;1.90;;;1.00;;
47958;SDS011;33718;50.910;-1.514;2022-08-06T12:51:15;3.85;;;1.05;;
47958;SDS011;33718;50.910;-1.514;2022-08-06T12:53:17;4.45;;;1.42;;
47958;SDS011;33718;50.910;-1.514;2022-08-06T12:55:21;3.47;;;1.25;;
47958;SDS011;33718;50.910;-1.514;2022-08-06T12:57:25;5.25;;;1.30;;
47958;SDS011;33718;50.910;-1.514;2022-08-06T13:01:48;5.57;;;1.10;;
47958;SDS011;33718;50.910;-1.514;2022-08-06T13:04:10;2.10;;;0.90;;
47958;SDS011;33718;50.910;-1.514;2022-08-06T13:06:18;2.95;;;1.10;;
47958;SDS011;33718;50.910;-1.514;2022-08-06T13:08:36;3.72;;;1.08;;
47958;SDS011;33718;50.910;-1.514;2022-08-06T13:10:48;3.95;;;1.60;;
47958;SDS011;33718;50.910;-1.514;2022-08-06T13:12:54;3.45;;;1.40;;
47958;SDS011;33718;50.910;-1.514;2022-08-06T13:15:16;2.75;;;1.35;;
47958;SDS011;33718;50.910;-1.514;2022-08-06T13:17:23;5.15;;;1.30;;
47958;SDS011;33718;50.910;-1.514;2022-08-06T13:19:55;5.28;;;1.42;;
47958;SDS011;33718;50.910;-1.514;2022-08-06T13:21:58;4.85;;;1.10;;
47958;SDS011;33718;50.910;-1.514;2022-08-06T13:24:00;3.90;;;1.08;;
47958;SDS011;33718;50.910;-1.514;2022-08-06T13:28:16;3.40;;;1.30;;
47958;SDS011;33718;50.910;-1.514;2022-08-06T13:30:28;2.60;;;0.90;;
47958;SDS011;33718;50.910;-1.514;2022-08-06T13:32:38;4.03;;;1.02;;
47958;SDS011;33718;50.910;-1.514;2022-08-06T13:34:47;3.80;;;0.98;;
47958;SDS011;33718;50.910;-1.514;2022-08-06T13:36:55;2.78;;;0.93;;
47958;SDS011;33718;50.910;-1.514;2022-08-06T13:39:01;4.43;;;1.05;;
47958;SDS011;33718;50.910;-1.514;2022-08-06T13:41:24;2.72;;;1.00;;
47958;SDS011;33718;50.910;-1.514;2022-08-06T13:45:43;6.45;;;1.15;;
47958;SDS011;33718;50.910;-1.514;2022-08-06T13:48:07;5.40;;;1.40;;
47958;SDS011;33718;50.910;-1.514;2022-08-06T13:50:21;1.92;;;0.70;;
47958;SDS011;33718;50.910;-1.514;2022-08-06T13:52:23;2.55;;;0.82;;
47958;SDS011;33718;50.910;-1.514;2022-08-06T13:54:25;5.15;;;1.67;;
47958;SDS011;33718;50.910;-1.514;2022-08-06T13:56:28;1.98;;;0.80;;
47958;SDS011;33718;50.910;-1.514;2022-08-06T13:58:34;5.53;;;0.98;;
47958;SDS011;33718;50.910;-1.514;2022-08-06T14:00:36;2.08;;;0.93;;
47958;SDS011;33718;50.910;-1.514;2022-08-06T14:02:38;6.55;;;1.40;;
47958;SDS011;33718;50.910;-1.514;2022-08-06T14:04:40;7.93;;;1.20;;
47958;SDS011;33718;50.910;-1.514;2022-08-06T14:06:51;5.53;;;0.90;;
47958;SDS011;33718;50.910;-1.514;2022-08-06T14:08:53;4.13;;;1.15;;
47958;SDS011;33718;50.910;-1.514;2022-08-06T14:10:57;5.03;;;1.17;;
47958;SDS011;33718;50.910;-1.514;2022-08-06T14:12:59;7.65;;;1.25;;
47958;SDS011;33718;50.910;-1.514;2022-08-06T14:15:21;2.33;;;1.15;;
47958;SDS011;33718;50.910;-1.514;2022-08-06T14:17:26;4.30;;;0.90;;
47958;SDS011;33718;50.910;-1.514;2022-08-06T14:19:35;2.42;;;1.15;;
47958;SDS011;33718;50.910;-1.514;2022-08-06T14:21:56;2.17;;;0.77;;
47958;SDS011;33718;50.910;-1.514;2022-08-06T14:23:58;6.10;;;0.98;;
47958;SDS011;33718;50.910;-1.514;2022-08-06T14:26:02;2.30;;;0.85;;
47958;SDS011;33718;50.910;-1.514;2022-08-06T14:28:12;2.72;;;0.90;;
47958;SDS011;33718;50.910;-1.514;2022-08-06T14:30:15;2.72;;;1.02;;
47958;SDS011;33718;50.910;-1.514;2022-08-06T14:32:33;3.20;;;0.60;;
47958;SDS011;33718;50.910;-1.514;2022-08-06T14:34:35;8.00;;;1.50;;
47958;SDS011;33718;50.910;-1.514;2022-08-06T14:36:38;2.85;;;1.10;;
47958;SDS011;33718;50.910;-1.514;2022-08-06T14:38:39;1.83;;;0.70;;
47958;SDS011;33718;50.910;-1.514;2022-08-06T14:40:43;3.67;;;0.90;;